Time;durP1;ratioP1;P1;durP2;ratioP2;P2;SDS_P1;SDS_P2;PMS_P1;PMS_P2;Temp;Humidity;BMP_temperature;BMP_pressure;BME280_temperature;BME280_humidity;BME280_pressure;Samples;Min_cycle;Max_cycle;Signal;HPM_P1;HPM_P2
2022/07/06 00:01:00;;;;;;;;;;;23.10;43.90;;;;;;5062216;28;19966;-61
2022/07/06 00:03:27;;;;;;;;;;;23.10;43.90;;;;;;5055669;28;19966;-62
2022/07/06 00:05:54;;;;;;;;;;;23.10;43.90;;;;;;5073089;28;19937;-61
2022/07/06 00:08:20;;;;;;;;;;;23.10;43.90;;;;;;5066393;28;20014;-61
2022/07/06 00:10:47;;;;;;;;;;;23.10;44.00;;;;;;5051191;28;19927;-61
2022/07/06 00:13:15;;;;;;;;;;;23.10;43.90;;;;;;5059506;28;20329;-60
2022/07/06 00:15:42;;;;;;;;;;;23.10;43.90;;;;;;5037035;28;20496;-61
2022/07/06 00:18:09;;;;;;;;;;;23.10;44.00;;;;;;5054514;28;19920;-61
2022/07/06 00:20:35;;;;;;;;;;;23.10;43.90;;;;;;5074395;28;20311;-62
2022/07/06 00:23:02;;;;;;;;;;;23.10;44.00;;;;;;5052122;28;19973;-60
2022/07/06 00:25:31;;;;;;;;;;;23.10;43.90;;;;;;5041212;28;19971;-61
2022/07/06 00:27:57;;;;;;;;;;;23.10;44.00;;;;;;5055734;28;19959;-61
2022/07/06 00:30:26;;;;;;;;;;;23.10;44.00;;;;;;5061219;28;20308;-61
2022/07/06 00:32:52;;;;;;;;;;;23.10;44.00;;;;;;5072094;28;19927;-61
2022/07/06 00:35:19;;;;;;;;;;;23.10;44.00;;;;;;5051770;28;19924;-61
2022/07/06 00:37:46;;;;;;;;;;;23.10;44.00;;;;;;5062946;28;19921;-61
2022/07/06 00:40:13;;;;;;;;;;;23.10;44.00;;;;;;5061321;28;19920;-67
2022/07/06 00:42:40;;;;;;;;;;;23.10;43.90;;;;;;5049078;28;19920;-61
2022/07/06 00:45:07;;;;;;;;;;;23.10;44.00;;;;;;5048655;28;20427;-61
2022/07/06 00:47:36;;;;;;;;;;;23.10;44.00;;;;;;5072625;28;20487;-61
2022/07/06 00:50:14;;;;;;;;;;;23.10;44.00;;;;;;5055100;28;19921;-62
2022/07/06 00:52:41;;;;;;;;;;;23.10;44.00;;;;;;5040515;28;19920;-61
2022/07/06 00:55:08;;;;;;;;;;;23.10;44.00;;;;;;5059703;28;19924;-61
2022/07/06 00:57:35;;;;;;;;;;;23.10;44.00;;;;;;5051364;28;19928;-61
2022/07/06 01:00:02;;;;;;;;;;;23.10;44.00;;;;;;5051673;28;19920;-60
2022/07/06 01:02:31;;;;;;;;;;;23.10;44.00;;;;;;5046966;28;20381;-61
2022/07/06 01:04:59;;;;;;;;;;;23.10;44.00;;;;;;5049176;28;19966;-61
2022/07/06 01:07:25;;;;;;;;;;;23.10;44.10;;;;;;5066826;28;19956;-61
2022/07/06 01:09:52;;;;;;;;;;;23.10;44.00;;;;;;5065265;28;19925;-60
2022/07/06 01:12:19;;;;;;;;;;;23.10;44.00;;;;;;5052497;28;20438;-61
2022/07/06 01:14:45;;;;;;;;;;;23.10;44.00;;;;;;5064625;28;19966;-61
2022/07/06 01:17:13;;;;;;;;;;;23.10;44.00;;;;;;5049475;28;19998;-60
2022/07/06 01:19:40;;;;;;;;;;;23.10;44.10;;;;;;5048598;28;19927;-61
2022/07/06 01:22:09;;;;;;;;;;;23.10;44.00;;;;;;5048358;28;19920;-61
2022/07/06 01:24:35;;;;;;;;;;;23.10;44.00;;;;;;5048687;28;20431;-60
2022/07/06 01:27:02;;;;;;;;;;;23.10;44.10;;;;;;5051393;28;19967;-61
2022/07/06 01:29:29;;;;;;;;;;;23.10;44.10;;;;;;5046749;28;19970;-61
2022/07/06 01:31:56;;;;;;;;;;;23.10;44.10;;;;;;5048902;28;19967;-60
2022/07/06 01:34:23;;;;;;;;;;;23.10;44.10;;;;;;5062296;28;19931;-60
2022/07/06 01:36:50;;;;;;;;;;;23.10;44.10;;;;;;5057537;28;19973;-62
2022/07/06 01:39:18;;;;;;;;;;;23.10;44.10;;;;;;5048929;28;19920;-60
2022/07/06 01:41:45;;;;;;;;;;;23.10;44.10;;;;;;5057147;28;19963;-61
2022/07/06 01:44:11;;;;;;;;;;;23.10;44.10;;;;;;5053343;28;19920;-61
2022/07/06 01:46:38;;;;;;;;;;;23.10;44.10;;;;;;5036063;28;19974;-61
2022/07/06 01:49:05;;;;;;;;;;;23.10;44.10;;;;;;5060505;28;19928;-62
2022/07/06 01:51:31;;;;;;;;;;;23.10;44.10;;;;;;5064685;28;19927;-61
2022/07/06 01:53:58;;;;;;;;;;;23.10;44.10;;;;;;5067977;28;19920;-61
2022/07/06 01:56:26;;;;;;;;;;;23.10;44.10;;;;;;5061566;28;19925;-61
2022/07/06 01:58:53;;;;;;;;;;;23.10;44.10;;;;;;5036677;28;19982;-61
2022/07/06 02:01:20;;;;;;;;;;;23.10;44.10;;;;;;5060550;28;19924;-61
2022/07/06 02:03:47;;;;;;;;;;;23.10;44.10;;;;;;5049719;28;19974;-61
2022/07/06 02:06:14;;;;;;;;;;;23.10;44.10;;;;;;5067937;28;19974;-61
2022/07/06 02:08:41;;;;;;;;;;;23.10;44.10;;;;;;5055131;28;19974;-61
2022/07/06 02:11:08;;;;;;;;;;;23.10;44.10;;;;;;5068915;28;19921;-61
2022/07/06 02:13:36;;;;;;;;;;;23.10;44.10;;;;;;5036656;28;19922;-60
2022/07/06 02:16:03;;;;;;;;;;;23.10;44.10;;;;;;5039528;28;20255;-61
2022/07/06 02:18:30;;;;;;;;;;;23.10;44.10;;;;;;5061290;28;20369;-61
2022/07/06 02:20:57;;;;;;;;;;;23.10;44.10;;;;;;5066488;28;19920;-61
2022/07/06 02:23:23;;;;;;;;;;;23.10;44.10;;;;;;5033817;28;19925;-60
2022/07/06 02:25:50;;;;;;;;;;;23.10;44.10;;;;;;5045936;28;19920;-61
2022/07/06 02:28:17;;;;;;;;;;;23.10;44.10;;;;;;5054480;28;19928;-61
2022/07/06 02:30:45;;;;;;;;;;;23.10;44.10;;;;;;5044466;28;19990;-60
2022/07/06 02:33:12;;;;;;;;;;;23.10;44.10;;;;;;5054567;28;19974;-61
2022/07/06 02:35:42;;;;;;;;;;;23.10;44.10;;;;;;5051089;28;20023;-61
2022/07/06 02:38:09;;;;;;;;;;;23.10;44.10;;;;;;4989490;28;1844069;-62
2022/07/06 02:40:36;;;;;;;;;;;23.10;44.10;;;;;;5049650;28;19959;-61
2022/07/06 02:43:02;;;;;;;;;;;23.10;44.10;;;;;;5043824;28;19920;-62
2022/07/06 02:45:29;;;;;;;;;;;23.10;44.10;;;;;;5075002;28;19974;-61
2022/07/06 02:47:57;;;;;;;;;;;23.10;44.10;;;;;;5073713;28;19986;-62
2022/07/06 02:50:24;;;;;;;;;;;23.10;44.10;;;;;;5069528;28;19966;-62
2022/07/06 02:52:51;;;;;;;;;;;23.10;44.10;;;;;;5057330;28;19942;-61
2022/07/06 02:55:17;;;;;;;;;;;23.10;44.10;;;;;;5069035;28;20054;-63
2022/07/06 02:57:44;;;;;;;;;;;23.10;44.10;;;;;;5064542;28;20012;-61
2022/07/06 03:00:11;;;;;;;;;;;23.10;44.10;;;;;;5068345;28;19921;-62
2022/07/06 03:02:38;;;;;;;;;;;23.10;44.10;;;;;;5065537;28;19920;-62
2022/07/06 03:05:07;;;;;;;;;;;23.10;44.20;;;;;;5066827;28;19921;-62
2022/07/06 03:07:34;;;;;;;;;;;23.10;44.10;;;;;;5054973;28;19920;-62
2022/07/06 03:10:01;;;;;;;;;;;23.10;44.10;;;;;;5073041;28;19943;-62
2022/07/06 03:12:28;;;;;;;;;;;23.10;44.20;;;;;;5061720;28;19921;-61
2022/07/06 03:14:54;;;;;;;;;;;23.10;44.20;;;;;;5073684;28;19968;-62
2022/07/06 03:17:21;;;;;;;;;;;23.10;44.20;;;;;;5061810;28;20289;-61
2022/07/06 03:19:48;;;;;;;;;;;23.10;44.10;;;;;;5073119;28;19932;-62
2022/07/06 03:22:16;;;;;;;;;;;23.10;44.20;;;;;;5068005;28;19928;-61
2022/07/06 03:24:43;;;;;;;;;;;23.10;44.10;;;;;;5047834;28;20304;-61
2022/07/06 03:27:10;;;;;;;;;;;23.10;44.10;;;;;;5042140;28;20011;-62
2022/07/06 03:29:36;;;;;;;;;;;23.10;44.10;;;;;;5060152;28;19976;-62
2022/07/06 03:32:04;;;;;;;;;;;23.10;44.10;;;;;;5053937;28;19925;-62
2022/07/06 03:34:30;;;;;;;;;;;23.10;44.10;;;;;;5067510;28;19921;-63
2022/07/06 03:36:57;;;;;;;;;;;23.10;44.20;;;;;;5054290;28;19935;-62
2022/07/06 03:39:25;;;;;;;;;;;23.10;44.10;;;;;;5052619;28;19974;-62
2022/07/06 03:41:52;;;;;;;;;;;23.10;44.10;;;;;;5054001;28;19964;-61
2022/07/06 03:44:18;;;;;;;;;;;23.10;44.20;;;;;;5051139;28;19971;-62
2022/07/06 03:46:45;;;;;;;;;;;23.10;44.10;;;;;;5038107;28;20269;-62
2022/07/06 03:49:12;;;;;;;;;;;23.10;44.10;;;;;;5068065;28;20266;-62
2022/07/06 03:51:40;;;;;;;;;;;23.10;44.10;;;;;;5057390;28;19921;-62
2022/07/06 03:54:06;;;;;;;;;;;23.10;44.10;;;;;;5052279;28;19930;-61
2022/07/06 03:56:36;;;;;;;;;;;23.10;44.10;;;;;;5073978;28;19928;-61
2022/07/06 03:59:04;;;;;;;;;;;23.10;44.20;;;;;;5063454;28;19925;-62
2022/07/06 04:01:30;;;;;;;;;;;23.10;44.10;;;;;;5039384;28;19999;-61
2022/07/06 04:03:57;;;;;;;;;;;23.10;44.20;;;;;;5040923;28;20019;-62
2022/07/06 04:06:27;;;;;;;;;;;23.10;44.20;;;;;;5064888;28;20404;-61
2022/07/06 04:08:54;;;;;;;;;;;23.10;44.20;;;;;;5068520;28;19920;-62
2022/07/06 04:11:20;;;;;;;;;;;23.10;44.20;;;;;;5045536;28;20270;-62
2022/07/06 04:13:49;;;;;;;;;;;23.10;44.20;;;;;;5071477;28;19925;-62
2022/07/06 04:16:15;;;;;;;;;;;23.10;44.20;;;;;;5048676;28;20015;-61
2022/07/06 04:18:42;;;;;;;;;;;23.10;44.20;;;;;;5041796;28;20416;-61
2022/07/06 04:21:09;;;;;;;;;;;23.10;44.20;;;;;;5059418;28;19952;-62
2022/07/06 04:23:36;;;;;;;;;;;23.10;44.20;;;;;;5071312;28;19973;-61
2022/07/06 04:26:02;;;;;;;;;;;23.10;44.20;;;;;;5036938;28;19943;-62
2022/07/06 04:28:29;;;;;;;;;;;23.10;44.20;;;;;;5065629;28;19921;-61
2022/07/06 04:30:57;;;;;;;;;;;23.10;44.30;;;;;;5035810;28;19927;-62
2022/07/06 04:33:24;;;;;;;;;;;23.10;44.20;;;;;;5064591;28;19920;-62
2022/07/06 04:35:51;;;;;;;;;;;23.10;44.20;;;;;;5047032;28;19925;-62
2022/07/06 04:38:17;;;;;;;;;;;23.10;44.20;;;;;;5064660;28;20040;-61
2022/07/06 04:40:46;;;;;;;;;;;23.10;44.20;;;;;;5069493;28;19921;-62
2022/07/06 04:43:12;;;;;;;;;;;23.10;44.20;;;;;;5069109;28;19921;-62
2022/07/06 04:45:39;;;;;;;;;;;23.10;44.30;;;;;;5062094;28;19920;-61
2022/07/06 04:48:08;;;;;;;;;;;23.10;44.20;;;;;;5053510;28;20362;-61
2022/07/06 04:50:34;;;;;;;;;;;23.10;44.30;;;;;;5044149;28;20011;-61
2022/07/06 04:53:01;;;;;;;;;;;23.10;44.20;;;;;;5059736;28;20400;-62
2022/07/06 04:55:28;;;;;;;;;;;23.10;44.30;;;;;;5055348;28;20015;-61
2022/07/06 04:57:55;;;;;;;;;;;23.10;44.30;;;;;;5046020;28;19924;-61
2022/07/06 05:00:21;;;;;;;;;;;23.10;44.30;;;;;;5073976;28;19932;-61
2022/07/06 05:02:48;;;;;;;;;;;23.10;44.40;;;;;;5050560;28;19931;-60
2022/07/06 05:05:16;;;;;;;;;;;23.10;44.30;;;;;;5056023;28;20012;-62
2022/07/06 05:07:43;;;;;;;;;;;23.10;44.40;;;;;;5064616;28;19921;-60
2022/07/06 05:10:10;;;;;;;;;;;23.10;44.30;;;;;;5066841;28;20015;-61
2022/07/06 05:12:37;;;;;;;;;;;23.10;44.30;;;;;;5055617;28;20035;-61
2022/07/06 05:15:03;;;;;;;;;;;23.10;44.40;;;;;;5041899;28;19920;-62
2022/07/06 05:17:30;;;;;;;;;;;23.10;44.40;;;;;;5062708;28;20032;-61
2022/07/06 05:19:57;;;;;;;;;;;23.10;44.40;;;;;;5054860;28;19967;-61
2022/07/06 05:22:25;;;;;;;;;;;23.10;44.40;;;;;;5065125;28;19920;-60
2022/07/06 05:24:52;;;;;;;;;;;23.10;44.40;;;;;;5069416;28;19920;-61
2022/07/06 05:27:18;;;;;;;;;;;23.10;44.40;;;;;;5042943;28;19975;-63
2022/07/06 05:29:45;;;;;;;;;;;23.10;44.40;;;;;;5053810;28;19920;-62
2022/07/06 05:32:12;;;;;;;;;;;23.10;44.40;;;;;;5067345;28;19921;-61
2022/07/06 05:34:39;;;;;;;;;;;23.10;44.40;;;;;;5068807;28;19924;-61
2022/07/06 05:37:06;;;;;;;;;;;23.10;44.40;;;;;;5056423;28;20293;-61
2022/07/06 05:39:34;;;;;;;;;;;23.10;44.50;;;;;;5059667;28;20358;-61
2022/07/06 05:42:01;;;;;;;;;;;23.10;44.40;;;;;;5039465;28;19920;-61
2022/07/06 05:44:28;;;;;;;;;;;23.10;44.50;;;;;;5046241;28;19922;-61
2022/07/06 05:50:11;;;;;;;;;;;23.10;44.50;;;;;;5058345;28;19921;-62
2022/07/06 05:52:26;;;;;;;;;;;23.10;44.50;;;;;;5074063;28;20015;-61
2022/07/06 05:54:54;;;;;;;;;;;23.10;44.50;;;;;;5064435;28;19928;-61
2022/07/06 05:57:21;;;;;;;;;;;23.10;44.50;;;;;;5065203;28;19920;-62
2022/07/06 05:59:48;;;;;;;;;;;23.10;44.50;;;;;;5047688;28;19921;-61
2022/07/06 06:02:14;;;;;;;;;;;23.10;44.50;;;;;;5054041;28;19925;-62
2022/07/06 06:04:41;;;;;;;;;;;23.10;44.50;;;;;;5068110;28;19924;-62
2022/07/06 06:07:08;;;;;;;;;;;23.10;44.40;;;;;;5064639;28;20308;-61
2022/07/06 06:09:35;;;;;;;;;;;23.10;44.50;;;;;;5066252;28;20365;-62
2022/07/06 06:12:03;;;;;;;;;;;23.10;44.50;;;;;;5035811;28;20007;-62
2022/07/06 06:14:30;;;;;;;;;;;23.10;44.50;;;;;;5043350;28;20026;-62
2022/07/06 06:16:57;;;;;;;;;;;23.10;44.50;;;;;;5052284;28;19921;-62
2022/07/06 06:19:23;;;;;;;;;;;23.10;44.50;;;;;;5066169;28;19982;-64
2022/07/06 06:21:51;;;;;;;;;;;23.10;44.50;;;;;;5053444;28;19928;-62
2022/07/06 06:24:18;;;;;;;;;;;23.10;44.50;;;;;;5041903;28;20358;-61
2022/07/06 06:26:45;;;;;;;;;;;23.10;44.40;;;;;;5066609;28;19921;-62
2022/07/06 06:29:13;;;;;;;;;;;23.10;44.40;;;;;;5052515;28;19920;-62
2022/07/06 06:31:39;;;;;;;;;;;23.10;44.40;;;;;;5058825;28;20555;-60
2022/07/06 06:34:06;;;;;;;;;;;23.10;44.40;;;;;;5036968;28;19921;-62
2022/07/06 06:36:33;;;;;;;;;;;23.10;44.40;;;;;;5051122;28;19921;-63
2022/07/06 06:38:59;;;;;;;;;;;23.10;44.40;;;;;;5036880;28;20011;-61
2022/07/06 06:41:26;;;;;;;;;;;23.10;44.40;;;;;;5051005;28;19921;-61
2022/07/06 06:43:53;;;;;;;;;;;23.10;44.40;;;;;;5041655;28;19942;-62
2022/07/06 06:46:21;;;;;;;;;;;23.10;44.40;;;;;;5055539;28;19924;-61
2022/07/06 06:48:48;;;;;;;;;;;23.10;44.40;;;;;;5071511;28;20337;-61
2022/07/06 06:51:14;;;;;;;;;;;23.10;44.30;;;;;;5051154;28;19928;-62
2022/07/06 06:53:41;;;;;;;;;;;23.00;44.20;;;;;;5072506;28;19920;-61
2022/07/06 06:56:08;;;;;;;;;;;23.10;44.30;;;;;;5056480;28;19920;-61
2022/07/06 06:58:35;;;;;;;;;;;23.10;44.30;;;;;;5068050;28;20304;-61
2022/07/06 07:01:02;;;;;;;;;;;23.10;44.30;;;;;;5074045;28;20376;-61
2022/07/06 07:03:30;;;;;;;;;;;23.10;44.30;;;;;;5053370;28;19924;-60
2022/07/06 07:05:56;;;;;;;;;;;23.00;44.20;;;;;;5063408;28;20276;-61
2022/07/06 07:08:23;;;;;;;;;;;23.00;44.20;;;;;;5068666;28;20015;-61
2022/07/06 07:10:50;;;;;;;;;;;23.00;44.20;;;;;;5047989;28;19950;-65
2022/07/06 07:13:16;;;;;;;;;;;23.00;44.20;;;;;;5060852;28;20362;-65
2022/07/06 07:15:43;;;;;;;;;;;23.00;44.20;;;;;;5040823;28;19932;-65
2022/07/06 07:18:13;;;;;;;;;;;23.00;44.20;;;;;;5066413;28;19960;-65
2022/07/06 07:20:41;;;;;;;;;;;23.00;44.20;;;;;;5064090;28;20016;-65
2022/07/06 07:23:08;;;;;;;;;;;23.00;44.20;;;;;;5059242;28;20285;-65
2022/07/06 07:25:35;;;;;;;;;;;23.10;44.30;;;;;;5063074;28;20053;-66
2022/07/06 07:28:02;;;;;;;;;;;23.10;44.30;;;;;;5043305;28;19921;-65
2022/07/06 07:30:28;;;;;;;;;;;23.10;44.30;;;;;;5072480;28;19920;-65
2022/07/06 07:32:56;;;;;;;;;;;23.10;44.30;;;;;;5047966;28;19920;-65
2022/07/06 07:35:23;;;;;;;;;;;23.10;44.40;;;;;;5046726;28;19979;-65
2022/07/06 07:37:51;;;;;;;;;;;23.10;44.40;;;;;;5063628;28;19982;-65
2022/07/06 07:40:18;;;;;;;;;;;23.10;44.40;;;;;;5047409;28;19921;-65
2022/07/06 07:42:45;;;;;;;;;;;23.10;44.40;;;;;;5066392;28;19924;-65
2022/07/06 07:45:12;;;;;;;;;;;23.10;44.40;;;;;;5062860;28;20023;-65
2022/07/06 07:47:38;;;;;;;;;;;23.10;44.40;;;;;;5071338;28;19921;-65
2022/07/06 07:50:05;;;;;;;;;;;23.10;44.40;;;;;;5045562;28;19925;-66
2022/07/06 07:52:32;;;;;;;;;;;23.10;44.40;;;;;;5054573;28;19982;-66
2022/07/06 07:55:00;;;;;;;;;;;23.10;44.40;;;;;;5075932;28;19988;-65
2022/07/06 07:57:27;;;;;;;;;;;23.10;44.50;;;;;;5055059;28;19978;-67
2022/07/06 07:59:54;;;;;;;;;;;23.10;44.40;;;;;;5074538;28;19924;-64
2022/07/06 08:02:21;;;;;;;;;;;23.10;44.40;;;;;;5052989;28;19921;-66
2022/07/06 08:04:47;;;;;;;;;;;23.10;44.50;;;;;;5068715;28;19939;-65
2022/07/06 08:07:14;;;;;;;;;;;23.10;44.50;;;;;;5070900;28;19920;-65
2022/07/06 08:09:41;;;;;;;;;;;23.10;44.50;;;;;;5051360;28;20405;-65
2022/07/06 08:12:10;;;;;;;;;;;23.10;44.50;;;;;;5062059;28;20015;-60
2022/07/06 08:14:37;;;;;;;;;;;23.10;44.50;;;;;;5041357;28;19920;-65
2022/07/06 08:17:04;;;;;;;;;;;23.20;44.10;;;;;;5062408;28;19925;-65
2022/07/06 08:19:31;;;;;;;;;;;23.20;44.50;;;;;;5037377;28;19921;-64
2022/07/06 08:21:58;;;;;;;;;;;23.20;44.50;;;;;;5043039;28;20377;-66
2022/07/06 08:24:25;;;;;;;;;;;23.20;44.50;;;;;;5041349;28;19972;-69
2022/07/06 08:26:52;;;;;;;;;;;23.20;44.50;;;;;;5040845;28;19925;-65
2022/07/06 08:29:22;;;;;;;;;;;23.20;44.50;;;;;;5058813;28;19927;-66
2022/07/06 08:31:49;;;;;;;;;;;23.20;44.50;;;;;;5044952;28;19948;-66
2022/07/06 08:34:16;;;;;;;;;;;23.20;44.60;;;;;;5056463;28;20020;-67
2022/07/06 08:36:42;;;;;;;;;;;23.20;44.70;;;;;;5041294;28;20168;-66
2022/07/06 08:39:09;;;;;;;;;;;23.20;45.10;;;;;;5058437;28;19982;-69
2022/07/06 08:41:36;;;;;;;;;;;23.10;45.20;;;;;;5063336;28;19920;-64
2022/07/06 08:44:03;;;;;;;;;;;23.10;45.20;;;;;;5040354;28;19924;-65
2022/07/06 08:46:31;;;;;;;;;;;23.10;45.30;;;;;;5059428;28;19942;-66
2022/07/06 08:49:00;;;;;;;;;;;23.10;45.40;;;;;;5059403;28;19978;-66
2022/07/06 08:51:27;;;;;;;;;;;23.10;45.40;;;;;;5043688;28;19993;-68
2022/07/06 08:53:54;;;;;;;;;;;23.00;45.30;;;;;;5037147;28;19960;-66
2022/07/06 08:56:20;;;;;;;;;;;23.10;45.30;;;;;;5058680;28;19928;-65
2022/07/06 08:58:47;;;;;;;;;;;23.00;45.20;;;;;;5047571;28;20314;-60
2022/07/06 09:01:14;;;;;;;;;;;23.00;45.20;;;;;;5047117;28;19974;-61
2022/07/06 09:03:42;;;;;;;;;;;23.10;45.30;;;;;;5062321;28;19986;-66
2022/07/06 09:06:09;;;;;;;;;;;23.10;45.80;;;;;;5059124;28;19967;-65
2022/07/06 09:08:36;;;;;;;;;;;23.10;45.20;;;;;;5056044;28;20373;-63
2022/07/06 09:11:03;;;;;;;;;;;23.10;45.30;;;;;;5060068;28;19921;-64
2022/07/06 09:13:30;;;;;;;;;;;23.10;45.20;;;;;;5041940;28;20035;-65
2022/07/06 09:15:57;;;;;;;;;;;23.10;45.30;;;;;;5043935;28;19929;-65
2022/07/06 09:18:24;;;;;;;;;;;23.10;45.30;;;;;;5058952;28;19921;-66
2022/07/06 09:20:52;;;;;;;;;;;23.10;45.30;;;;;;5062096;28;19920;-61
2022/07/06 09:23:19;;;;;;;;;;;23.10;45.30;;;;;;5040007;28;19939;-66
2022/07/06 09:25:48;;;;;;;;;;;23.10;45.40;;;;;;5057662;28;19921;-67
2022/07/06 09:28:15;;;;;;;;;;;23.20;45.40;;;;;;5025088;28;19920;-68
2022/07/06 09:30:43;;;;;;;;;;;23.20;45.50;;;;;;5063884;28;19943;-64
2022/07/06 09:33:12;;;;;;;;;;;23.20;45.50;;;;;;5045618;28;19924;-65
2022/07/06 09:35:39;;;;;;;;;;;23.20;45.50;;;;;;5043136;28;19927;-63
2022/07/06 09:38:07;;;;;;;;;;;23.20;45.50;;;;;;5058623;28;19920;-64
2022/07/06 09:40:35;;;;;;;;;;;23.20;46.10;;;;;;5043260;28;19975;-64
2022/07/06 09:43:11;;;;;;;;;;;23.20;45.60;;;;;;5063526;28;19924;-65
2022/07/06 09:45:39;;;;;;;;;;;23.20;45.50;;;;;;5038301;28;19996;-64
2022/07/06 09:48:06;;;;;;;;;;;23.30;45.60;;;;;;5039560;28;19970;-61
2022/07/06 09:50:38;;;;;;;;;;;23.30;45.70;;;;;;5040684;28;20021;-60
2022/07/06 09:53:06;;;;;;;;;;;23.30;45.70;;;;;;5040232;28;19920;-60
2022/07/06 09:55:33;;;;;;;;;;;23.30;45.80;;;;;;5055777;28;20023;-61
2022/07/06 09:58:00;;;;;;;;;;;23.30;45.80;;;;;;5039510;28;19925;-61
2022/07/06 10:00:27;;;;;;;;;;;23.30;45.80;;;;;;5059722;28;19928;-63
2022/07/06 10:02:54;;;;;;;;;;;23.30;45.90;;;;;;5049669;28;20298;-65
2022/07/06 10:05:20;;;;;;;;;;;23.30;45.80;;;;;;5064615;28;19920;-64
2022/07/06 10:07:47;;;;;;;;;;;23.30;45.90;;;;;;5037549;28;19925;-59
2022/07/06 10:10:15;;;;;;;;;;;23.30;45.90;;;;;;5044007;28;19966;-59
2022/07/06 10:12:42;;;;;;;;;;;23.30;46.00;;;;;;5069347;28;20427;-59
2022/07/06 10:15:09;;;;;;;;;;;23.30;45.90;;;;;;5054929;28;19921;-58
2022/07/06 10:17:36;;;;;;;;;;;23.30;45.90;;;;;;5066231;28;19925;-59
2022/07/06 10:20:03;;;;;;;;;;;23.30;46.00;;;;;;5059213;28;20419;-58
2022/07/06 10:22:31;;;;;;;;;;;23.30;46.00;;;;;;5061633;28;20369;-59
2022/07/06 10:24:59;;;;;;;;;;;23.30;46.00;;;;;;5066344;28;19933;-59
2022/07/06 10:27:27;;;;;;;;;;;23.30;46.00;;;;;;5049626;28;20049;-58
2022/07/06 10:29:53;;;;;;;;;;;23.30;46.00;;;;;;5063322;28;19952;-59
2022/07/06 10:32:20;;;;;;;;;;;23.30;45.90;;;;;;5051651;28;20012;-59
2022/07/06 10:34:47;;;;;;;;;;;23.30;45.90;;;;;;5057893;28;19921;-58
2022/07/06 10:37:22;;;;;;;;;;;23.30;45.90;;;;;;5050541;28;20420;-58
2022/07/06 10:42:41;;;;;;;;;;;23.30;45.90;;;;;;5043145;28;19916;-59
2022/07/06 10:45:09;;;;;;;;;;;23.30;45.80;;;;;;5058233;28;19927;-60
2022/07/06 10:47:36;;;;;;;;;;;23.30;45.80;;;;;;5046831;28;19921;-60
2022/07/06 10:50:03;;;;;;;;;;;23.30;45.80;;;;;;5064927;28;19925;-65
2022/07/06 10:52:44;;;;;;;;;;;23.30;45.80;;;;;;5045795;28;19971;-66
2022/07/06 10:55:18;;;;;;;;;;;23.30;45.80;;;;;;5066035;28;19966;-64
2022/07/06 10:57:53;;;;;;;;;;;23.30;45.80;;;;;;5063658;28;20414;-64
2022/07/06 11:00:20;;;;;;;;;;;23.30;45.70;;;;;;5059957;28;19921;-65
2022/07/06 11:02:47;;;;;;;;;;;23.30;45.20;;;;;;5062173;28;20332;-64
2022/07/06 11:05:15;;;;;;;;;;;23.30;45.70;;;;;;5065766;28;19921;-64
2022/07/06 11:07:49;;;;;;;;;;;23.30;45.80;;;;;;5067606;28;19928;-64
2022/07/06 11:10:16;;;;;;;;;;;23.30;45.80;;;;;;5063162;28;19963;-64
2022/07/06 11:12:45;;;;;;;;;;;23.30;45.80;;;;;;5061527;28;20349;-64
2022/07/06 11:15:13;;;;;;;;;;;23.20;45.80;;;;;;5046878;28;19966;-65
2022/07/06 11:17:40;;;;;;;;;;;23.20;45.80;;;;;;5052838;28;19925;-64
2022/07/06 11:20:10;;;;;;;;;;;23.20;45.80;;;;;;5066496;28;20346;-64
2022/07/06 11:22:37;;;;;;;;;;;23.20;45.80;;;;;;5067555;28;20406;-64
2022/07/06 11:25:04;;;;;;;;;;;23.20;45.80;;;;;;5061626;28;19928;-64
2022/07/06 11:27:31;;;;;;;;;;;23.20;45.80;;;;;;5070790;28;20378;-64
2022/07/06 11:29:58;;;;;;;;;;;23.20;45.80;;;;;;5071955;28;20279;-64
2022/07/06 11:32:26;;;;;;;;;;;23.20;45.80;;;;;;5062735;28;20265;-64
2022/07/06 11:34:53;;;;;;;;;;;23.20;45.80;;;;;;5051833;28;19921;-65
2022/07/06 11:37:20;;;;;;;;;;;23.20;45.80;;;;;;5052329;28;19967;-66
2022/07/06 11:39:47;;;;;;;;;;;23.20;45.80;;;;;;5068440;28;19933;-66
2022/07/06 11:42:15;;;;;;;;;;;23.20;45.80;;;;;;5049577;28;19928;-66
2022/07/06 11:44:42;;;;;;;;;;;23.30;46.00;;;;;;5042518;28;20024;-66
2022/07/06 11:47:09;;;;;;;;;;;23.30;45.90;;;;;;5039871;28;20285;-61
2022/07/06 11:49:37;;;;;;;;;;;23.30;46.00;;;;;;5041060;28;19924;-64
2022/07/06 11:52:06;;;;;;;;;;;23.30;46.00;;;;;;5049250;28;20400;-65
2022/07/06 11:54:32;;;;;;;;;;;23.30;46.00;;;;;;5045753;28;20018;-66
2022/07/06 11:56:59;;;;;;;;;;;23.30;46.10;;;;;;5049620;28;19920;-65
2022/07/06 11:59:27;;;;;;;;;;;23.30;46.10;;;;;;5062189;28;19996;-65
2022/07/06 12:01:58;;;;;;;;;;;23.30;46.20;;;;;;5047777;28;19932;-65
2022/07/06 12:04:25;;;;;;;;;;;23.30;46.10;;;;;;5069813;28;19974;-65
2022/07/06 12:06:53;;;;;;;;;;;23.30;46.10;;;;;;5060396;28;20378;-65
2022/07/06 12:09:20;;;;;;;;;;;23.30;46.10;;;;;;5043395;28;19994;-65
2022/07/06 12:11:47;;;;;;;;;;;23.30;46.10;;;;;;5043873;28;19927;-65
2022/07/06 12:14:14;;;;;;;;;;;23.20;46.00;;;;;;5054026;28;20019;-65
2022/07/06 12:16:41;;;;;;;;;;;23.20;46.00;;;;;;5049246;28;20027;-65
2022/07/06 12:19:08;;;;;;;;;;;23.20;46.00;;;;;;5047758;28;19960;-60
2022/07/06 12:21:34;;;;;;;;;;;23.20;45.80;;;;;;5038155;28;20381;-65
2022/07/06 12:24:06;;;;;;;;;;;23.20;45.80;;;;;;5042305;28;19924;-65
2022/07/06 12:26:39;;;;;;;;;;;23.20;45.80;;;;;;5056987;28;20416;-66
2022/07/06 12:29:08;;;;;;;;;;;23.20;45.80;;;;;;5065320;28;19955;-64
2022/07/06 12:31:36;;;;;;;;;;;23.20;45.80;;;;;;5046853;28;19925;-64
2022/07/06 12:34:02;;;;;;;;;;;23.20;45.60;;;;;;5045411;28;19920;-64
2022/07/06 12:36:29;;;;;;;;;;;23.20;45.50;;;;;;5043685;28;20250;-64
2022/07/06 12:38:56;;;;;;;;;;;23.20;45.40;;;;;;5047245;28;19920;-64
2022/07/06 12:41:31;;;;;;;;;;;23.20;45.20;;;;;;5046270;28;20328;-65
2022/07/06 12:44:05;;;;;;;;;;;23.20;45.10;;;;;;5055357;28;19944;-65
2022/07/06 12:46:32;;;;;;;;;;;23.20;45.00;;;;;;5062371;28;19921;-65
2022/07/06 12:48:59;;;;;;;;;;;23.20;45.00;;;;;;5075211;28;19920;-66
2022/07/06 12:51:26;;;;;;;;;;;23.20;45.00;;;;;;5044422;28;19935;-65
2022/07/06 12:53:53;;;;;;;;;;;23.20;44.90;;;;;;5060595;28;19920;-65
2022/07/06 12:56:20;;;;;;;;;;;23.20;44.80;;;;;;5066614;28;20357;-64
2022/07/06 12:59:01;;;;;;;;;;;23.20;44.80;;;;;;5062844;28;19992;-65
2022/07/06 13:01:28;;;;;;;;;;;23.20;44.70;;;;;;5049675;28;20269;-65
2022/07/06 13:03:54;;;;;;;;;;;23.20;44.60;;;;;;5062621;28;20384;-64
2022/07/06 13:06:27;;;;;;;;;;;23.20;44.50;;;;;;5058327;28;19959;-61
2022/07/06 13:08:54;;;;;;;;;;;23.20;44.50;;;;;;5050586;28;20054;-65
2022/07/06 13:11:21;;;;;;;;;;;23.20;44.50;;;;;;5056971;28;19925;-64
2022/07/06 13:13:48;;;;;;;;;;;23.20;44.40;;;;;;5046954;28;19920;-65
2022/07/06 13:16:16;;;;;;;;;;;23.20;44.30;;;;;;5049154;28;20396;-65
2022/07/06 13:18:43;;;;;;;;;;;23.20;44.20;;;;;;5062005;28;19933;-66
2022/07/06 13:21:11;;;;;;;;;;;23.20;44.20;;;;;;5043155;28;20311;-65
2022/07/06 13:23:37;;;;;;;;;;;23.10;44.10;;;;;;5067615;28;19925;-64
2022/07/06 13:26:04;;;;;;;;;;;23.20;44.00;;;;;;5069935;28;19924;-65
2022/07/06 13:28:31;;;;;;;;;;;23.10;43.90;;;;;;5049788;28;19981;-65
2022/07/06 13:30:57;;;;;;;;;;;23.10;43.80;;;;;;5050984;28;19920;-65
2022/07/06 13:33:26;;;;;;;;;;;23.10;43.80;;;;;;5041699;28;19981;-66
2022/07/06 13:35:52;;;;;;;;;;;23.10;43.80;;;;;;5062583;28;19927;-60
2022/07/06 13:38:19;;;;;;;;;;;23.10;43.80;;;;;;5046928;28;19920;-65
2022/07/06 13:40:46;;;;;;;;;;;23.10;43.70;;;;;;5060993;28;19943;-65
2022/07/06 13:43:13;;;;;;;;;;;23.10;43.60;;;;;;5058382;28;19921;-64
2022/07/06 13:45:40;;;;;;;;;;;23.10;43.50;;;;;;5052951;28;19974;-65
2022/07/06 13:48:06;;;;;;;;;;;23.10;43.40;;;;;;5064774;28;20309;-64
2022/07/06 13:50:34;;;;;;;;;;;23.20;43.30;;;;;;5058263;28;19928;-64
2022/07/06 13:53:01;;;;;;;;;;;23.10;43.20;;;;;;5060878;28;19956;-64
2022/07/06 13:55:28;;;;;;;;;;;23.10;43.10;;;;;;5048755;28;19927;-64
2022/07/06 13:57:55;;;;;;;;;;;23.10;43.00;;;;;;5064411;28;19924;-64
2022/07/06 14:00:22;;;;;;;;;;;23.10;43.00;;;;;;5062175;28;20262;-64
2022/07/06 14:02:48;;;;;;;;;;;23.10;42.90;;;;;;5043350;28;20007;-66
2022/07/06 14:05:15;;;;;;;;;;;23.10;42.90;;;;;;5070277;28;20330;-64
2022/07/06 14:07:45;;;;;;;;;;;23.10;42.80;;;;;;5068833;28;20034;-64
2022/07/06 14:10:12;;;;;;;;;;;23.10;42.80;;;;;;5041719;28;19926;-64
2022/07/06 14:12:39;;;;;;;;;;;23.10;42.70;;;;;;5035475;28;19928;-65
2022/07/06 14:15:06;;;;;;;;;;;23.10;42.60;;;;;;5050525;28;19981;-65
2022/07/06 14:17:33;;;;;;;;;;;23.10;42.50;;;;;;5064210;28;20323;-65
2022/07/06 14:20:00;;;;;;;;;;;23.10;42.40;;;;;;5047127;28;19937;-64
2022/07/06 14:22:26;;;;;;;;;;;23.10;42.40;;;;;;5049915;28;20317;-65